Charlestown, Maryland
Current Conditions -  °F | °C
As of 7:55 PM on Tuesday 27 Jan 2015 (Local Time) from KAPG Reporting Station
Scattered Clouds Scattered Clouds  
Wind Chill: 20°   Ceiling: Unl
Heat Index: 30°   Visibility: 7mi
Dew Point: 21°   Wind: 14mph
Humidity: 69%   Direction: 290°WNW
Pressure: 29.86"   Gusts: NA
Location:  39.57°N, 75.97°W
Report Text: KAPG 280055Z 29012KT 7SM SCT200 M01/M06 A2986 RMK LAST
Loading
Personal Weather Stations






























Interactive Weather Map New forecast layout! Learn more

10-Day Weather Forecast

Advertisements
Track Severe Weather on mobile